sensor_id;sensor_type;location;lat;lon;timestamp;P1;durP1;ratioP1;P2;durP2;ratioP2
23310;SDS011;11828;51.508;18.118;2023-07-20T00:01:26;17.02;;;5.30;;
23310;SDS011;11828;51.508;18.118;2023-07-20T00:03:52;9.32;;;4.43;;
23310;SDS011;11828;51.508;18.118;2023-07-20T00:06:24;12.45;;;4.03;;
23310;SDS011;11828;51.508;18.118;2023-07-20T00:08:53;6.70;;;3.80;;
23310;SDS011;11828;51.508;18.118;2023-07-20T00:11:21;11.38;;;4.72;;
23310;SDS011;11828;51.508;18.118;2023-07-20T00:13:52;10.75;;;4.30;;
23310;SDS011;11828;51.508;18.118;2023-07-20T00:16:19;10.15;;;3.63;;
23310;SDS011;11828;51.508;18.118;2023-07-20T00:18:45;10.95;;;3.72;;
23310;SDS011;11828;51.508;18.118;2023-07-20T00:21:11;8.50;;;3.67;;
23310;SDS011;11828;51.508;18.118;2023-07-20T00:23:37;10.02;;;3.50;;
23310;SDS011;11828;51.508;18.118;2023-07-20T00:26:03;10.82;;;3.47;;
23310;SDS011;11828;51.508;18.118;2023-07-20T00:28:30;10.30;;;3.47;;
23310;SDS011;11828;51.508;18.118;2023-07-20T00:30:56;9.50;;;3.47;;
23310;SDS011;11828;51.508;18.118;2023-07-20T00:33:43;11.65;;;3.40;;
23310;SDS011;11828;51.508;18.118;2023-07-20T00:36:10;10.90;;;3.60;;
23310;SDS011;11828;51.508;18.118;2023-07-20T00:38:36;12.75;;;3.80;;
23310;SDS011;11828;51.508;18.118;2023-07-20T00:41:03;19.88;;;4.78;;
23310;SDS011;11828;51.508;18.118;2023-07-20T00:43:29;13.73;;;4.00;;
23310;SDS011;11828;51.508;18.118;2023-07-20T00:45:55;9.18;;;3.60;;
23310;SDS011;11828;51.508;18.118;2023-07-20T00:48:21;16.90;;;3.90;;
23310;SDS011;11828;51.508;18.118;2023-07-20T00:50:48;10.05;;;3.42;;
23310;SDS011;11828;51.508;18.118;2023-07-20T00:53:14;10.70;;;3.42;;
23310;SDS011;11828;51.508;18.118;2023-07-20T00:55:41;10.65;;;3.42;;
23310;SDS011;11828;51.508;18.118;2023-07-20T00:58:07;6.18;;;3.17;;
23310;SDS011;11828;51.508;18.118;2023-07-20T01:00:34;10.27;;;3.50;;
23310;SDS011;11828;51.508;18.118;2023-07-20T01:03:00;10.73;;;3.50;;
23310;SDS011;11828;51.508;18.118;2023-07-20T01:05:38;13.00;;;3.65;;
23310;SDS011;11828;51.508;18.118;2023-07-20T01:08:38;9.95;;;3.28;;
23310;SDS011;11828;51.508;18.118;2023-07-20T01:11:16;8.40;;;3.25;;
23310;SDS011;11828;51.508;18.118;2023-07-20T01:13:50;9.38;;;3.50;;
23310;SDS011;11828;51.508;18.118;2023-07-20T01:16:16;8.40;;;3.22;;
23310;SDS011;11828;51.508;18.118;2023-07-20T01:18:42;13.40;;;3.53;;
23310;SDS011;11828;51.508;18.118;2023-07-20T01:21:09;8.80;;;3.35;;
23310;SDS011;11828;51.508;18.118;2023-07-20T01:24:00;10.82;;;3.45;;
23310;SDS011;11828;51.508;18.118;2023-07-20T01:27:26;9.98;;;3.20;;
23310;SDS011;11828;51.508;18.118;2023-07-20T01:32:39;5.75;;;2.67;;
23310;SDS011;11828;51.508;18.118;2023-07-20T01:35:08;11.93;;;3.42;;
23310;SDS011;11828;51.508;18.118;2023-07-20T01:37:41;9.20;;;2.92;;
23310;SDS011;11828;51.508;18.118;2023-07-20T01:40:10;10.75;;;3.13;;
23310;SDS011;11828;51.508;18.118;2023-07-20T01:42:42;5.70;;;2.55;;
23310;SDS011;11828;51.508;18.118;2023-07-20T01:45:11;10.82;;;2.90;;
23310;SDS011;11828;51.508;18.118;2023-07-20T01:47:37;8.15;;;2.60;;
23310;SDS011;11828;51.508;18.118;2023-07-20T01:50:04;8.35;;;2.60;;
23310;SDS011;11828;51.508;18.118;2023-07-20T01:52:31;10.65;;;2.80;;
23310;SDS011;11828;51.508;18.118;2023-07-20T01:54:57;9.32;;;2.90;;
23310;SDS011;11828;51.508;18.118;2023-07-20T01:57:23;10.45;;;2.90;;
23310;SDS011;11828;51.508;18.118;2023-07-20T01:59:49;24.15;;;4.47;;
23310;SDS011;11828;51.508;18.118;2023-07-20T02:02:16;10.93;;;3.08;;
23310;SDS011;11828;51.508;18.118;2023-07-20T02:04:43;12.73;;;3.42;;
23310;SDS011;11828;51.508;18.118;2023-07-20T02:07:09;10.57;;;2.80;;
23310;SDS011;11828;51.508;18.118;2023-07-20T02:09:35;12.55;;;3.40;;
23310;SDS011;11828;51.508;18.118;2023-07-20T02:12:02;11.57;;;3.40;;
23310;SDS011;11828;51.508;18.118;2023-07-20T02:14:28;11.75;;;3.15;;
23310;SDS011;11828;51.508;18.118;2023-07-20T02:16:55;10.95;;;2.97;;
23310;SDS011;11828;51.508;18.118;2023-07-20T02:19:24;9.40;;;3.00;;
23310;SDS011;11828;51.508;18.118;2023-07-20T02:21:52;10.73;;;3.05;;
23310;SDS011;11828;51.508;18.118;2023-07-20T02:24:18;6.68;;;2.58;;
23310;SDS011;11828;51.508;18.118;2023-07-20T02:26:44;13.70;;;3.33;;
23310;SDS011;11828;51.508;18.118;2023-07-20T02:29:10;9.68;;;2.72;;
23310;SDS011;11828;51.508;18.118;2023-07-20T02:31:37;16.83;;;3.88;;
23310;SDS011;11828;51.508;18.118;2023-07-20T02:34:07;14.38;;;3.45;;
23310;SDS011;11828;51.508;18.118;2023-07-20T02:36:34;11.18;;;3.25;;
23310;SDS011;11828;51.508;18.118;2023-07-20T02:39:01;18.77;;;4.05;;
23310;SDS011;11828;51.508;18.118;2023-07-20T02:41:30;10.27;;;3.42;;
23310;SDS011;11828;51.508;18.118;2023-07-20T02:43:58;10.30;;;3.20;;
23310;SDS011;11828;51.508;18.118;2023-07-20T02:46:24;21.50;;;4.18;;
23310;SDS011;11828;51.508;18.118;2023-07-20T02:48:51;10.88;;;3.00;;
23310;SDS011;11828;51.508;18.118;2023-07-20T02:51:17;9.23;;;2.97;;
23310;SDS011;11828;51.508;18.118;2023-07-20T02:53:43;11.45;;;3.00;;
23310;SDS011;11828;51.508;18.118;2023-07-20T02:56:10;10.15;;;3.45;;
23310;SDS011;11828;51.508;18.118;2023-07-20T02:58:39;12.63;;;3.80;;
23310;SDS011;11828;51.508;18.118;2023-07-20T03:01:09;8.32;;;3.40;;
23310;SDS011;11828;51.508;18.118;2023-07-20T03:03:36;14.25;;;4.07;;
23310;SDS011;11828;51.508;18.118;2023-07-20T03:06:04;13.20;;;3.78;;
23310;SDS011;11828;51.508;18.118;2023-07-20T03:08:31;19.33;;;4.40;;
23310;SDS011;11828;51.508;18.118;2023-07-20T03:10:57;13.65;;;3.72;;
23310;SDS011;11828;51.508;18.118;2023-07-20T03:13:23;11.90;;;3.45;;
23310;SDS011;11828;51.508;18.118;2023-07-20T03:15:50;9.77;;;3.30;;
23310;SDS011;11828;51.508;18.118;2023-07-20T03:18:18;8.73;;;3.17;;
23310;SDS011;11828;51.508;18.118;2023-07-20T03:20:44;11.07;;;3.20;;
23310;SDS011;11828;51.508;18.118;2023-07-20T03:23:11;7.95;;;2.90;;
23310;SDS011;11828;51.508;18.118;2023-07-20T03:25:37;9.90;;;2.88;;
23310;SDS011;11828;51.508;18.118;2023-07-20T03:28:03;9.02;;;3.00;;
23310;SDS011;11828;51.508;18.118;2023-07-20T03:30:30;17.85;;;3.80;;
23310;SDS011;11828;51.508;18.118;2023-07-20T03:32:56;15.10;;;3.35;;
23310;SDS011;11828;51.508;18.118;2023-07-20T03:35:23;9.35;;;2.88;;
23310;SDS011;11828;51.508;18.118;2023-07-20T03:37:48;8.60;;;2.75;;
23310;SDS011;11828;51.508;18.118;2023-07-20T03:40:15;7.90;;;2.92;;
23310;SDS011;11828;51.508;18.118;2023-07-20T03:42:41;8.93;;;2.85;;
23310;SDS011;11828;51.508;18.118;2023-07-20T03:45:08;11.68;;;3.17;;
23310;SDS011;11828;51.508;18.118;2023-07-20T03:47:34;7.15;;;2.80;;
23310;SDS011;11828;51.508;18.118;2023-07-20T03:50:01;8.02;;;2.97;;
23310;SDS011;11828;51.508;18.118;2023-07-20T03:52:26;10.30;;;3.38;;
23310;SDS011;11828;51.508;18.118;2023-07-20T03:54:53;8.18;;;3.00;;
23310;SDS011;11828;51.508;18.118;2023-07-20T03:57:19;11.40;;;3.40;;
23310;SDS011;11828;51.508;18.118;2023-07-20T03:59:46;7.38;;;2.53;;
23310;SDS011;11828;51.508;18.118;2023-07-20T04:02:13;9.82;;;3.08;;
23310;SDS011;11828;51.508;18.118;2023-07-20T04:04:40;8.93;;;2.92;;
23310;SDS011;11828;51.508;18.118;2023-07-20T04:07:06;17.20;;;3.80;;
23310;SDS011;11828;51.508;18.118;2023-07-20T04:09:33;10.32;;;2.97;;
23310;SDS011;11828;51.508;18.118;2023-07-20T04:11:59;13.38;;;3.00;;
23310;SDS011;11828;51.508;18.118;2023-07-20T04:14:25;9.88;;;3.13;;
23310;SDS011;11828;51.508;18.118;2023-07-20T04:17:10;9.30;;;3.00;;
23310;SDS011;11828;51.508;18.118;2023-07-20T04:19:38;12.30;;;3.25;;
23310;SDS011;11828;51.508;18.118;2023-07-20T04:22:04;9.90;;;3.28;;
23310;SDS011;11828;51.508;18.118;2023-07-20T04:24:31;9.20;;;3.20;;
23310;SDS011;11828;51.508;18.118;2023-07-20T04:26:57;8.95;;;3.08;;
23310;SDS011;11828;51.508;18.118;2023-07-20T04:29:23;7.95;;;3.13;;
23310;SDS011;11828;51.508;18.118;2023-07-20T04:31:49;8.65;;;3.15;;
23310;SDS011;11828;51.508;18.118;2023-07-20T04:34:15;8.50;;;3.15;;
23310;SDS011;11828;51.508;18.118;2023-07-20T04:36:42;9.98;;;3.70;;
23310;SDS011;11828;51.508;18.118;2023-07-20T04:39:09;11.05;;;3.50;;
23310;SDS011;11828;51.508;18.118;2023-07-20T04:41:35;8.77;;;3.85;;
23310;SDS011;11828;51.508;18.118;2023-07-20T04:44:02;13.48;;;5.10;;
23310;SDS011;11828;51.508;18.118;2023-07-20T04:46:28;15.55;;;6.65;;
23310;SDS011;11828;51.508;18.118;2023-07-20T04:48:55;13.30;;;6.40;;
23310;SDS011;11828;51.508;18.118;2023-07-20T04:51:21;12.77;;;5.10;;
23310;SDS011;11828;51.508;18.118;2023-07-20T04:53:48;15.88;;;6.80;;
23310;SDS011;11828;51.508;18.118;2023-07-20T04:56:14;16.80;;;8.38;;
23310;SDS011;11828;51.508;18.118;2023-07-20T04:58:40;14.35;;;6.35;;
23310;SDS011;11828;51.508;18.118;2023-07-20T05:01:07;11.68;;;6.40;;
23310;SDS011;11828;51.508;18.118;2023-07-20T05:03:34;13.85;;;6.45;;
23310;SDS011;11828;51.508;18.118;2023-07-20T05:06:00;12.13;;;6.20;;
23310;SDS011;11828;51.508;18.118;2023-07-20T05:08:26;14.45;;;5.05;;
23310;SDS011;11828;51.508;18.118;2023-07-20T05:10:52;10.45;;;3.95;;
23310;SDS011;11828;51.508;18.118;2023-07-20T05:13:18;11.48;;;4.40;;
23310;SDS011;11828;51.508;18.118;2023-07-20T05:15:44;12.80;;;4.28;;
23310;SDS011;11828;51.508;18.118;2023-07-20T05:18:10;11.52;;;4.28;;
23310;SDS011;11828;51.508;18.118;2023-07-20T05:20:37;15.48;;;4.93;;
23310;SDS011;11828;51.508;18.118;2023-07-20T05:23:03;14.13;;;5.40;;
23310;SDS011;11828;51.508;18.118;2023-07-20T05:25:30;15.10;;;6.20;;
23310;SDS011;11828;51.508;18.118;2023-07-20T05:27:56;15.38;;;6.07;;
23310;SDS011;11828;51.508;18.118;2023-07-20T05:30:22;19.75;;;8.52;;
23310;SDS011;11828;51.508;18.118;2023-07-20T05:32:49;18.05;;;8.77;;
23310;SDS011;11828;51.508;18.118;2023-07-20T05:35:17;13.27;;;6.97;;
23310;SDS011;11828;51.508;18.118;2023-07-20T05:37:44;11.63;;;5.40;;
23310;SDS011;11828;51.508;18.118;2023-07-20T05:40:11;11.30;;;4.70;;
23310;SDS011;11828;51.508;18.118;2023-07-20T05:42:38;10.05;;;4.63;;
23310;SDS011;11828;51.508;18.118;2023-07-20T05:45:05;10.90;;;4.30;;
23310;SDS011;11828;51.508;18.118;2023-07-20T05:47:32;9.60;;;4.18;;
23310;SDS011;11828;51.508;18.118;2023-07-20T05:49:58;9.43;;;4.30;;
23310;SDS011;11828;51.508;18.118;2023-07-20T05:52:25;9.98;;;4.35;;
23310;SDS011;11828;51.508;18.118;2023-07-20T05:54:51;13.02;;;4.88;;
23310;SDS011;11828;51.508;18.118;2023-07-20T05:57:17;11.85;;;4.70;;
23310;SDS011;11828;51.508;18.118;2023-07-20T05:59:43;8.07;;;4.28;;
23310;SDS011;11828;51.508;18.118;2023-07-20T06:02:10;11.50;;;4.72;;
23310;SDS011;11828;51.508;18.118;2023-07-20T06:04:36;12.45;;;4.75;;
23310;SDS011;11828;51.508;18.118;2023-07-20T06:07:04;11.75;;;4.25;;
23310;SDS011;11828;51.508;18.118;2023-07-20T06:09:30;14.60;;;4.55;;
23310;SDS011;11828;51.508;18.118;2023-07-20T06:11:57;11.93;;;4.15;;
23310;SDS011;11828;51.508;18.118;2023-07-20T06:14:23;24.30;;;5.50;;
23310;SDS011;11828;51.508;18.118;2023-07-20T06:16:49;10.40;;;4.50;;
23310;SDS011;11828;51.508;18.118;2023-07-20T06:19:15;9.35;;;4.00;;
23310;SDS011;11828;51.508;18.118;2023-07-20T06:21:41;11.70;;;4.70;;
23310;SDS011;11828;51.508;18.118;2023-07-20T06:24:09;11.35;;;4.18;;
23310;SDS011;11828;51.508;18.118;2023-07-20T06:26:35;15.25;;;4.82;;
23310;SDS011;11828;51.508;18.118;2023-07-20T06:29:04;15.57;;;4.88;;
23310;SDS011;11828;51.508;18.118;2023-07-20T06:31:34;14.27;;;5.15;;
23310;SDS011;11828;51.508;18.118;2023-07-20T06:34:01;21.23;;;5.57;;
23310;SDS011;11828;51.508;18.118;2023-07-20T06:36:28;15.27;;;4.40;;
23310;SDS011;11828;51.508;18.118;2023-07-20T06:38:54;13.48;;;4.28;;
23310;SDS011;11828;51.508;18.118;2023-07-20T06:41:21;11.18;;;4.22;;
23310;SDS011;11828;51.508;18.118;2023-07-20T06:43:48;18.35;;;4.65;;
23310;SDS011;11828;51.508;18.118;2023-07-20T06:46:14;12.02;;;3.95;;
23310;SDS011;11828;51.508;18.118;2023-07-20T06:48:40;10.80;;;5.03;;
23310;SDS011;11828;51.508;18.118;2023-07-20T06:51:06;11.50;;;5.38;;
23310;SDS011;11828;51.508;18.118;2023-07-20T06:53:32;19.02;;;7.47;;
23310;SDS011;11828;51.508;18.118;2023-07-20T06:56:00;17.45;;;6.32;;
23310;SDS011;11828;51.508;18.118;2023-07-20T06:58:26;14.05;;;4.90;;
23310;SDS011;11828;51.508;18.118;2023-07-20T07:00:52;15.82;;;4.65;;
23310;SDS011;11828;51.508;18.118;2023-07-20T07:03:18;8.88;;;3.53;;
23310;SDS011;11828;51.508;18.118;2023-07-20T07:05:45;10.55;;;4.95;;
23310;SDS011;11828;51.508;18.118;2023-07-20T07:08:11;10.10;;;4.10;;
23310;SDS011;11828;51.508;18.118;2023-07-20T07:10:38;10.38;;;3.70;;
23310;SDS011;11828;51.508;18.118;2023-07-20T07:13:04;12.25;;;3.60;;
23310;SDS011;11828;51.508;18.118;2023-07-20T07:15:30;10.60;;;3.75;;
23310;SDS011;11828;51.508;18.118;2023-07-20T07:17:57;10.38;;;3.50;;
23310;SDS011;11828;51.508;18.118;2023-07-20T07:20:25;13.57;;;3.88;;
23310;SDS011;11828;51.508;18.118;2023-07-20T07:22:51;8.38;;;3.22;;
23310;SDS011;11828;51.508;18.118;2023-07-20T07:25:18;9.23;;;3.42;;
23310;SDS011;11828;51.508;18.118;2023-07-20T07:27:45;8.85;;;3.67;;
23310;SDS011;11828;51.508;18.118;2023-07-20T07:30:11;13.00;;;4.20;;
23310;SDS011;11828;51.508;18.118;2023-07-20T07:32:38;11.75;;;3.88;;
23310;SDS011;11828;51.508;18.118;2023-07-20T07:35:04;7.30;;;3.22;;
23310;SDS011;11828;51.508;18.118;2023-07-20T07:37:31;8.23;;;3.15;;
23310;SDS011;11828;51.508;18.118;2023-07-20T07:39:57;8.38;;;3.40;;
23310;SDS011;11828;51.508;18.118;2023-07-20T07:42:23;4.95;;;2.92;;
23310;SDS011;11828;51.508;18.118;2023-07-20T07:44:49;5.20;;;2.90;;
23310;SDS011;11828;51.508;18.118;2023-07-20T07:47:15;7.57;;;3.10;;
23310;SDS011;11828;51.508;18.118;2023-07-20T07:49:42;7.50;;;3.03;;
23310;SDS011;11828;51.508;18.118;2023-07-20T07:52:08;8.20;;;2.90;;
23310;SDS011;11828;51.508;18.118;2023-07-20T07:54:34;9.38;;;3.03;;
23310;SDS011;11828;51.508;18.118;2023-07-20T07:57:00;11.23;;;3.50;;
23310;SDS011;11828;51.508;18.118;2023-07-20T07:59:27;15.00;;;4.10;;
23310;SDS011;11828;51.508;18.118;2023-07-20T08:01:53;8.80;;;3.00;;
23310;SDS011;11828;51.508;18.118;2023-07-20T08:04:19;14.70;;;4.13;;
23310;SDS011;11828;51.508;18.118;2023-07-20T08:06:45;11.77;;;3.45;;
23310;SDS011;11828;51.508;18.118;2023-07-20T08:09:11;7.03;;;2.78;;
23310;SDS011;11828;51.508;18.118;2023-07-20T08:11:38;9.82;;;3.13;;
23310;SDS011;11828;51.508;18.118;2023-07-20T08:14:05;9.20;;;2.90;;
23310;SDS011;11828;51.508;18.118;2023-07-20T08:16:31;10.55;;;2.88;;
23310;SDS011;11828;51.508;18.118;2023-07-20T08:18:57;10.13;;;2.85;;
23310;SDS011;11828;51.508;18.118;2023-07-20T08:21:23;8.48;;;2.58;;
23310;SDS011;11828;51.508;18.118;2023-07-20T08:23:50;17.92;;;3.65;;
23310;SDS011;11828;51.508;18.118;2023-07-20T08:26:16;5.05;;;1.77;;
23310;SDS011;11828;51.508;18.118;2023-07-20T08:28:43;9.48;;;2.22;;
23310;SDS011;11828;51.508;18.118;2023-07-20T08:31:13;2.40;;;1.30;;
23310;SDS011;11828;51.508;18.118;2023-07-20T08:33:39;9.20;;;2.30;;
23310;SDS011;11828;51.508;18.118;2023-07-20T08:36:05;9.15;;;2.22;;
23310;SDS011;11828;51.508;18.118;2023-07-20T08:38:32;13.35;;;2.78;;
23310;SDS011;11828;51.508;18.118;2023-07-20T08:40:58;8.77;;;2.53;;
23310;SDS011;11828;51.508;18.118;2023-07-20T08:43:25;11.77;;;3.63;;
23310;SDS011;11828;51.508;18.118;2023-07-20T08:45:56;6.70;;;2.42;;
23310;SDS011;11828;51.508;18.118;2023-07-20T08:48:23;9.00;;;2.45;;
23310;SDS011;11828;51.508;18.118;2023-07-20T08:50:50;7.20;;;2.05;;
23310;SDS011;11828;51.508;18.118;2023-07-20T08:53:22;5.15;;;1.75;;
23310;SDS011;11828;51.508;18.118;2023-07-20T08:55:50;5.82;;;2.08;;
23310;SDS011;11828;51.508;18.118;2023-07-20T08:58:20;4.57;;;1.88;;
23310;SDS011;11828;51.508;18.118;2023-07-20T09:00:46;3.97;;;1.83;;
23310;SDS011;11828;51.508;18.118;2023-07-20T09:03:17;6.63;;;2.33;;
23310;SDS011;11828;51.508;18.118;2023-07-20T09:05:44;5.97;;;1.80;;
23310;SDS011;11828;51.508;18.118;2023-07-20T09:08:12;6.55;;;2.20;;
23310;SDS011;11828;51.508;18.118;2023-07-20T09:10:38;8.27;;;2.35;;
23310;SDS011;11828;51.508;18.118;2023-07-20T09:13:05;4.80;;;1.67;;
23310;SDS011;11828;51.508;18.118;2023-07-20T09:15:31;8.98;;;2.15;;
23310;SDS011;11828;51.508;18.118;2023-07-20T09:17:58;5.93;;;1.85;;
23310;SDS011;11828;51.508;18.118;2023-07-20T09:20:28;11.50;;;2.78;;
23310;SDS011;11828;51.508;18.118;2023-07-20T09:23:04;10.80;;;2.60;;
23310;SDS011;11828;51.508;18.118;2023-07-20T09:25:31;9.48;;;2.47;;
23310;SDS011;11828;51.508;18.118;2023-07-20T09:28:01;8.13;;;2.15;;
23310;SDS011;11828;51.508;18.118;2023-07-20T09:30:29;13.13;;;2.97;;
23310;SDS011;11828;51.508;18.118;2023-07-20T09:32:56;10.38;;;2.55;;
23310;SDS011;11828;51.508;18.118;2023-07-20T09:35:22;5.55;;;1.90;;
23310;SDS011;11828;51.508;18.118;2023-07-20T09:37:58;10.38;;;2.58;;
23310;SDS011;11828;51.508;18.118;2023-07-20T09:40:28;8.25;;;2.63;;
23310;SDS011;11828;51.508;18.118;2023-07-20T09:42:55;8.02;;;2.50;;
23310;SDS011;11828;51.508;18.118;2023-07-20T09:45:35;7.88;;;2.40;;
23310;SDS011;11828;51.508;18.118;2023-07-20T09:48:09;8.02;;;2.50;;
23310;SDS011;11828;51.508;18.118;2023-07-20T09:50:39;6.82;;;2.17;;
23310;SDS011;11828;51.508;18.118;2023-07-20T09:53:14;6.53;;;2.38;;
23310;SDS011;11828;51.508;18.118;2023-07-20T09:55:46;9.68;;;2.75;;
23310;SDS011;11828;51.508;18.118;2023-07-20T09:58:14;6.95;;;2.65;;
23310;SDS011;11828;51.508;18.118;2023-07-20T10:00:41;5.95;;;2.10;;
23310;SDS011;11828;51.508;18.118;2023-07-20T10:03:11;6.35;;;2.30;;
23310;SDS011;11828;51.508;18.118;2023-07-20T10:05:43;5.07;;;2.03;;
23310;SDS011;11828;51.508;18.118;2023-07-20T10:08:20;4.00;;;1.95;;
23310;SDS011;11828;51.508;18.118;2023-07-20T10:10:50;6.88;;;2.63;;
23310;SDS011;11828;51.508;18.118;2023-07-20T10:13:17;8.43;;;2.50;;
23310;SDS011;11828;51.508;18.118;2023-07-20T10:15:53;5.53;;;2.30;;
23310;SDS011;11828;51.508;18.118;2023-07-20T10:18:29;5.13;;;2.35;;
23310;SDS011;11828;51.508;18.118;2023-07-20T10:21:20;5.18;;;2.20;;
23310;SDS011;11828;51.508;18.118;2023-07-20T10:23:50;6.50;;;2.47;;
23310;SDS011;11828;51.508;18.118;2023-07-20T10:26:34;8.02;;;2.47;;
23310;SDS011;11828;51.508;18.118;2023-07-20T10:29:01;7.72;;;2.65;;
23310;SDS011;11828;51.508;18.118;2023-07-20T10:31:28;6.15;;;2.35;;
23310;SDS011;11828;51.508;18.118;2023-07-20T10:33:58;6.82;;;2.30;;
23310;SDS011;11828;51.508;18.118;2023-07-20T10:36:25;4.97;;;1.98;;
23310;SDS011;11828;51.508;18.118;2023-07-20T10:38:53;5.40;;;2.30;;
23310;SDS011;11828;51.508;18.118;2023-07-20T10:41:22;5.20;;;2.08;;
23310;SDS011;11828;51.508;18.118;2023-07-20T10:44:08;7.43;;;2.47;;
23310;SDS011;11828;51.508;18.118;2023-07-20T10:49:04;6.25;;;2.30;;
23310;SDS011;11828;51.508;18.118;2023-07-20T10:51:42;6.15;;;2.28;;
23310;SDS011;11828;51.508;18.118;2023-07-20T10:56:43;8.75;;;2.80;;
23310;SDS011;11828;51.508;18.118;2023-07-20T10:59:20;5.35;;;2.05;;
23310;SDS011;11828;51.508;18.118;2023-07-20T11:01:49;6.35;;;2.00;;
23310;SDS011;11828;51.508;18.118;2023-07-20T11:07:08;8.32;;;2.20;;
23310;SDS011;11828;51.508;18.118;2023-07-20T11:09:36;6.00;;;1.95;;
23310;SDS011;11828;51.508;18.118;2023-07-20T11:12:10;5.07;;;2.00;;
23310;SDS011;11828;51.508;18.118;2023-07-20T11:14:53;3.97;;;1.90;;
23310;SDS011;11828;51.508;18.118;2023-07-20T11:17:22;4.22;;;1.80;;
23310;SDS011;11828;51.508;18.118;2023-07-20T11:19:56;4.95;;;1.52;;
23310;SDS011;11828;51.508;18.118;2023-07-20T11:22:26;4.07;;;1.73;;
23310;SDS011;11828;51.508;18.118;2023-07-20T11:24:56;3.25;;;1.50;;
23310;SDS011;11828;51.508;18.118;2023-07-20T11:27:23;4.13;;;1.60;;
23310;SDS011;11828;51.508;18.118;2023-07-20T11:29:49;4.45;;;1.55;;
23310;SDS011;11828;51.508;18.118;2023-07-20T11:32:22;4.05;;;1.75;;
23310;SDS011;11828;51.508;18.118;2023-07-20T11:34:49;4.88;;;1.98;;
23310;SDS011;11828;51.508;18.118;2023-07-20T11:37:16;5.90;;;1.83;;
23310;SDS011;11828;51.508;18.118;2023-07-20T11:39:44;4.40;;;1.60;;
23310;SDS011;11828;51.508;18.118;2023-07-20T11:42:10;6.35;;;2.30;;
23310;SDS011;11828;51.508;18.118;2023-07-20T11:44:37;5.22;;;2.17;;
23310;SDS011;11828;51.508;18.118;2023-07-20T11:47:13;5.00;;;1.90;;
23310;SDS011;11828;51.508;18.118;2023-07-20T11:49:40;6.88;;;2.40;;
23310;SDS011;11828;51.508;18.118;2023-07-20T11:52:10;11.07;;;2.75;;
23310;SDS011;11828;51.508;18.118;2023-07-20T11:54:41;5.63;;;1.95;;
23310;SDS011;11828;51.508;18.118;2023-07-20T11:57:15;7.85;;;2.17;;
23310;SDS011;11828;51.508;18.118;2023-07-20T11:59:55;3.17;;;1.60;;
23310;SDS011;11828;51.508;18.118;2023-07-20T12:02:27;5.40;;;1.77;;
23310;SDS011;11828;51.508;18.118;2023-07-20T12:04:54;4.60;;;1.55;;
23310;SDS011;11828;51.508;18.118;2023-07-20T12:07:20;7.25;;;1.75;;
23310;SDS011;11828;51.508;18.118;2023-07-20T12:10:09;5.22;;;1.80;;
23310;SDS011;11828;51.508;18.118;2023-07-20T12:12:40;6.30;;;2.00;;
23310;SDS011;11828;51.508;18.118;2023-07-20T12:15:13;5.63;;;1.75;;
23310;SDS011;11828;51.508;18.118;2023-07-20T12:17:52;4.00;;;1.40;;
23310;SDS011;11828;51.508;18.118;2023-07-20T12:23:02;5.68;;;1.77;;
23310;SDS011;11828;51.508;18.118;2023-07-20T12:25:42;5.78;;;1.77;;
23310;SDS011;11828;51.508;18.118;2023-07-20T12:28:11;6.90;;;1.92;;
23310;SDS011;11828;51.508;18.118;2023-07-20T12:30:43;8.05;;;2.00;;
23310;SDS011;11828;51.508;18.118;2023-07-20T12:33:12;6.65;;;1.92;;
23310;SDS011;11828;51.508;18.118;2023-07-20T12:35:41;8.25;;;2.33;;
23310;SDS011;11828;51.508;18.118;2023-07-20T12:38:08;5.72;;;1.88;;
23310;SDS011;11828;51.508;18.118;2023-07-20T12:40:35;5.53;;;1.90;;
23310;SDS011;11828;51.508;18.118;2023-07-20T12:43:01;6.00;;;1.88;;
23310;SDS011;11828;51.508;18.118;2023-07-20T12:45:27;6.35;;;2.00;;
23310;SDS011;11828;51.508;18.118;2023-07-20T12:47:53;4.13;;;1.55;;
23310;SDS011;11828;51.508;18.118;2023-07-20T12:50:20;7.22;;;2.15;;
23310;SDS011;11828;51.508;18.118;2023-07-20T12:52:46;6.55;;;2.08;;
23310;SDS011;11828;51.508;18.118;2023-07-20T12:55:12;4.00;;;1.65;;
23310;SDS011;11828;51.508;18.118;2023-07-20T12:57:38;4.78;;;1.88;;
23310;SDS011;11828;51.508;18.118;2023-07-20T13:00:08;3.03;;;1.40;;
23310;SDS011;11828;51.508;18.118;2023-07-20T13:02:37;4.03;;;1.55;;
23310;SDS011;11828;51.508;18.118;2023-07-20T13:05:04;5.43;;;2.00;;
23310;SDS011;11828;51.508;18.118;2023-07-20T13:07:34;6.22;;;2.00;;
23310;SDS011;11828;51.508;18.118;2023-07-20T13:10:03;4.85;;;1.77;;
23310;SDS011;11828;51.508;18.118;2023-07-20T13:12:31;6.22;;;1.95;;
23310;SDS011;11828;51.508;18.118;2023-07-20T13:14:58;4.13;;;1.25;;
23310;SDS011;11828;51.508;18.118;2023-07-20T13:17:28;5.03;;;1.70;;
23310;SDS011;11828;51.508;18.118;2023-07-20T13:19:54;6.65;;;1.90;;
23310;SDS011;11828;51.508;18.118;2023-07-20T13:22:20;5.00;;;1.63;;
23310;SDS011;11828;51.508;18.118;2023-07-20T13:24:46;6.35;;;1.95;;
23310;SDS011;11828;51.508;18.118;2023-07-20T13:27:14;7.28;;;2.00;;
23310;SDS011;11828;51.508;18.118;2023-07-20T13:29:45;6.15;;;1.90;;
23310;SDS011;11828;51.508;18.118;2023-07-20T13:32:14;6.05;;;1.55;;
23310;SDS011;11828;51.508;18.118;2023-07-20T13:34:41;8.50;;;2.22;;
23310;SDS011;11828;51.508;18.118;2023-07-20T13:37:09;7.95;;;2.10;;
23310;SDS011;11828;51.508;18.118;2023-07-20T13:39:36;12.20;;;2.75;;
23310;SDS011;11828;51.508;18.118;2023-07-20T13:42:02;7.95;;;2.75;;
23310;SDS011;11828;51.508;18.118;2023-07-20T13:44:33;11.05;;;2.72;;
23310;SDS011;11828;51.508;18.118;2023-07-20T13:47:00;11.35;;;2.70;;
23310;SDS011;11828;51.508;18.118;2023-07-20T13:49:27;9.43;;;2.13;;
23310;SDS011;11828;51.508;18.118;2023-07-20T13:51:53;5.68;;;1.63;;
23310;SDS011;11828;51.508;18.118;2023-07-20T13:54:20;5.05;;;1.42;;
23310;SDS011;11828;51.508;18.118;2023-07-20T13:56:47;5.32;;;1.70;;
23310;SDS011;11828;51.508;18.118;2023-07-20T13:59:13;8.55;;;2.08;;
23310;SDS011;11828;51.508;18.118;2023-07-20T14:01:39;4.45;;;1.45;;
23310;SDS011;11828;51.508;18.118;2023-07-20T14:04:06;4.60;;;1.60;;
23310;SDS011;11828;51.508;18.118;2023-07-20T14:06:33;5.22;;;1.70;;
23310;SDS011;11828;51.508;18.118;2023-07-20T14:08:59;2.83;;;1.48;;
23310;SDS011;11828;51.508;18.118;2023-07-20T14:11:26;4.85;;;1.70;;
23310;SDS011;11828;51.508;18.118;2023-07-20T14:13:52;3.97;;;1.83;;
23310;SDS011;11828;51.508;18.118;2023-07-20T14:16:22;5.60;;;1.80;;
23310;SDS011;11828;51.508;18.118;2023-07-20T14:18:48;5.22;;;1.77;;
23310;SDS011;11828;51.508;18.118;2023-07-20T14:21:15;2.83;;;1.50;;
23310;SDS011;11828;51.508;18.118;2023-07-20T14:23:46;4.50;;;2.00;;
23310;SDS011;11828;51.508;18.118;2023-07-20T14:26:18;3.85;;;1.70;;
23310;SDS011;11828;51.508;18.118;2023-07-20T14:28:44;3.67;;;1.52;;
23310;SDS011;11828;51.508;18.118;2023-07-20T14:31:11;3.05;;;1.50;;
23310;SDS011;11828;51.508;18.118;2023-07-20T14:33:37;2.47;;;1.40;;
23310;SDS011;11828;51.508;18.118;2023-07-20T14:36:04;3.22;;;1.42;;
23310;SDS011;11828;51.508;18.118;2023-07-20T14:38:30;3.67;;;1.90;;
23310;SDS011;11828;51.508;18.118;2023-07-20T14:40:58;4.18;;;1.73;;
23310;SDS011;11828;51.508;18.118;2023-07-20T14:43:24;3.53;;;1.67;;
23310;SDS011;11828;51.508;18.118;2023-07-20T14:45:50;2.88;;;1.40;;
23310;SDS011;11828;51.508;18.118;2023-07-20T14:48:17;8.77;;;2.67;;